KHPN/HPN METAR and TAF weather

Enter ICAO airport designator
Station Type Date Time Source
KHPN METAR 2020/09/19 04:56 UTC NOAA

KHPN 190456Z 35010KT 10SM CLR 10/M02 A3018 RMK AO2 SLP220 T01001017 402060100


Station Type Date Time Source
KHPN Decoded METAR 2020/09/19 04:56 UTC NOAA

WHITE PLAINS WESTCHESTER, NY, United States (KHPN) 41-04N 073-42W 121M
Sep 19, 2020 - 12:56 AM EDT / 2020.09.19 0456 UTC
Wind: from the N (350 degrees) at 12 MPH (10 KT):0
Visibility: 10 mile(s):0
Sky conditions: clear
Temperature: 50.0 F (10.0 C)
Dew Point: 28.9 F (-1.7 C)
Relative Humidity: 43%
Pressure (altimeter): 30.18 in. Hg (1022 hPa)
ob: KHPN 190456Z 35010KT 10SM CLR 10/M02 A3018 RMK AO2 SLP220 T01001017 402060100
cycle: 5

Station Type Date Time Source
KHPN TAF 2020/09/19 02:22 UTC NOAA

TAF
AMD KHPN 190220Z 1902/1924 36011G17KT P6SM SKC
FM190800 01011KT P6SM SKC
FM191300 36012G19KT P6SM SKC
FM192100 36008KT P6SM SKC
AMD NOT SKED

Example: see airport list